createdAt,value
2016-12-29T00:00:13.088Z,5.39
2016-12-29T00:00:53.686Z,5.45
2016-12-29T00:01:34.192Z,5.46
2016-12-29T00:02:14.693Z,5.43
2016-12-29T00:02:55.149Z,5.39
2016-12-29T00:03:35.642Z,5.39
2016-12-29T00:04:16.142Z,5.35
2016-12-29T00:04:56.643Z,5.43
2016-12-29T00:05:37.133Z,5.35
2016-12-29T00:06:17.627Z,5.27
2016-12-29T00:06:58.105Z,5.42
2016-12-29T00:07:38.596Z,5.31
2016-12-29T00:08:19.081Z,5.39
2016-12-29T00:08:59.547Z,5.4
2016-12-29T00:09:40.035Z,5.45
2016-12-29T00:10:20.525Z,5.56
2016-12-29T00:11:00.980Z,5.42
2016-12-29T00:11:41.485Z,5.42
2016-12-29T00:12:21.977Z,5.45
2016-12-29T00:13:02.461Z,5.39
2016-12-29T00:13:42.950Z,5.38
2016-12-29T00:14:23.454Z,5.45
2016-12-29T00:15:03.919Z,5.28
2016-12-29T00:15:44.445Z,5.42
2016-12-29T00:16:24.935Z,5.4
2016-12-29T00:17:05.416Z,5.46
2016-12-29T00:17:45.917Z,5.36
2016-12-29T00:18:26.378Z,5.39
2016-12-29T00:19:06.889Z,5.38
2016-12-29T00:19:47.403Z,5.35
2016-12-29T00:20:27.848Z,5.38
2016-12-29T00:21:08.323Z,5.48
2016-12-29T00:21:48.800Z,5.46
2016-12-29T00:22:29.336Z,5.46
2016-12-29T00:23:09.771Z,5.46
2016-12-29T00:23:50.267Z,5.42
2016-12-29T00:24:30.761Z,5.36
2016-12-29T00:25:11.250Z,5.35
2016-12-29T00:25:51.733Z,5.4
2016-12-29T00:26:32.207Z,5.42
2016-12-29T00:27:12.690Z,5.31
2016-12-29T00:27:53.152Z,5.36
2016-12-29T00:28:33.621Z,5.46
2016-12-29T00:29:14.225Z,5.4
2016-12-29T00:29:54.739Z,5.49
2016-12-29T00:30:35.205Z,5.57
2016-12-29T00:31:15.681Z,5.42
2016-12-29T00:31:56.173Z,5.54
2016-12-29T00:32:36.608Z,5.46
2016-12-29T00:33:17.099Z,5.48
2016-12-29T00:33:57.660Z,5.4
2016-12-29T00:34:38.119Z,5.53
2016-12-29T00:35:18.667Z,5.61
2016-12-29T00:35:59.139Z,5.57
2016-12-29T00:36:39.589Z,5.51
2016-12-29T00:37:20.166Z,5.43
2016-12-29T00:38:00.642Z,5.51
2016-12-29T00:38:41.164Z,5.42
2016-12-29T00:39:21.590Z,5.51
2016-12-29T00:40:02.102Z,5.45
2016-12-29T00:40:42.613Z,5.49
2016-12-29T00:41:23.097Z,5.46
2016-12-29T00:42:03.577Z,5.45
2016-12-29T00:42:44.066Z,5.45
2016-12-29T00:43:24.583Z,5.51
2016-12-29T00:44:05.066Z,5.49
2016-12-29T00:44:45.556Z,5.57
2016-12-29T00:45:26.037Z,5.61
2016-12-29T00:46:06.532Z,5.56
2016-12-29T00:46:46.995Z,5.6
2016-12-29T00:47:27.448Z,5.6
2016-12-29T00:48:07.879Z,5.51
2016-12-29T00:48:48.392Z,5.48
2016-12-29T00:49:28.894Z,5.49
2016-12-29T00:50:09.358Z,5.51
2016-12-29T00:50:49.816Z,5.46
2016-12-29T00:51:30.309Z,5.56
2016-12-29T00:52:10.806Z,5.48
2016-12-29T00:52:51.273Z,5.53
2016-12-29T00:53:31.765Z,5.49
2016-12-29T00:54:12.248Z,5.53
2016-12-29T00:54:52.755Z,5.56
2016-12-29T00:55:33.251Z,5.51
2016-12-29T00:56:13.717Z,5.57
2016-12-29T00:56:54.226Z,5.45
2016-12-29T00:57:34.715Z,5.56
2016-12-29T00:58:15.226Z,5.53
2016-12-29T00:58:55.719Z,5.46
2016-12-29T00:59:36.203Z,5.56
2016-12-29T01:00:16.667Z,5.53
2016-12-29T01:00:57.145Z,5.57
2016-12-29T01:01:37.631Z,5.43
2016-12-29T01:02:18.096Z,5.49
2016-12-29T01:02:58.597Z,5.45
2016-12-29T01:03:39.072Z,5.46
2016-12-29T01:04:19.554Z,5.39
2016-12-29T01:05:00.071Z,5.48
2016-12-29T01:05:40.557Z,5.46
2016-12-29T01:06:21.005Z,5.45
2016-12-29T01:07:01.482Z,5.49
2016-12-29T01:07:41.978Z,5.53
2016-12-29T01:08:22.441Z,5.57
2016-12-29T01:09:02.886Z,5.6
2016-12-29T01:09:43.376Z,5.56
2016-12-29T01:10:23.871Z,5.56
2016-12-29T01:11:04.327Z,5.53
2016-12-29T01:11:44.808Z,5.58
2016-12-29T01:12:25.359Z,5.67
2016-12-29T01:13:05.818Z,5.68
2016-12-29T01:13:46.333Z,5.54
2016-12-29T01:14:26.738Z,5.46
2016-12-29T01:15:07.242Z,5.49
2016-12-29T01:15:47.765Z,5.56
2016-12-29T01:16:28.289Z,5.38
2016-12-29T01:17:08.811Z,5.3
2016-12-29T01:17:49.291Z,5.35
2016-12-29T01:18:29.737Z,5.35
2016-12-29T01:19:10.195Z,5.33
2016-12-29T01:19:50.727Z,5.2
2016-12-29T01:20:31.237Z,5.33
2016-12-29T01:21:11.673Z,5.4
2016-12-29T01:21:52.144Z,5.31
2016-12-29T01:22:32.640Z,5.27
2016-12-29T01:23:13.176Z,5.43
2016-12-29T01:23:53.608Z,5.39
2016-12-29T01:24:34.120Z,5.33
2016-12-29T01:25:14.669Z,5.35
2016-12-29T01:25:55.071Z,5.38
2016-12-29T01:26:35.600Z,5.49
2016-12-29T01:27:16.031Z,5.53
2016-12-29T01:27:56.544Z,5.21
2016-12-29T01:28:37.069Z,5.42
2016-12-29T01:29:17.509Z,5.35
2016-12-29T01:29:58.186Z,5.18
2016-12-29T01:30:38.695Z,5.15
2016-12-29T01:31:19.173Z,5.1
2016-12-29T01:31:59.743Z,5.17
2016-12-29T01:32:40.138Z,5
2016-12-29T01:33:20.651Z,5.07
2016-12-29T01:34:01.136Z,4.89
2016-12-29T01:34:41.620Z,5.02
2016-12-29T01:35:22.093Z,4.99
2016-12-29T01:36:02.553Z,5.06
2016-12-29T01:36:43.025Z,5.1
2016-12-29T01:37:23.501Z,5.12
2016-12-29T01:38:04.044Z,4.88
2016-12-29T01:38:44.509Z,4.69
2016-12-29T01:39:25.155Z,4.8
2016-12-29T01:40:05.639Z,4.73
2016-12-29T01:40:46.156Z,4.86
2016-12-29T01:41:26.639Z,4.78
2016-12-29T01:42:07.143Z,4.96
2016-12-29T01:42:47.654Z,4.97
2016-12-29T01:43:28.171Z,5.03
2016-12-29T01:44:08.722Z,5.07
2016-12-29T01:44:49.177Z,5.06
2016-12-29T01:45:29.678Z,5
2016-12-29T01:46:10.226Z,5.07
2016-12-29T01:46:50.714Z,5.02
2016-12-29T01:47:31.286Z,5.03
2016-12-29T01:48:11.785Z,5.15
2016-12-29T01:48:52.240Z,5.13
2016-12-29T01:49:32.711Z,5.09
2016-12-29T01:50:13.227Z,5.03
2016-12-29T01:50:53.725Z,5.03
2016-12-29T01:51:34.214Z,5.06
2016-12-29T01:52:14.646Z,5.07
2016-12-29T01:52:55.156Z,5.12
2016-12-29T01:53:35.638Z,5.03
2016-12-29T01:54:16.168Z,5.06
2016-12-29T01:54:56.704Z,5.03
2016-12-29T01:55:37.170Z,4.86
2016-12-29T01:56:17.661Z,4.92
2016-12-29T01:56:58.143Z,5
2016-12-29T01:57:38.618Z,5
2016-12-29T01:58:19.121Z,5.1
2016-12-29T01:58:59.563Z,5.13
2016-12-29T01:59:40.152Z,5.12
2016-12-29T02:00:20.586Z,5.1
2016-12-29T02:01:01.025Z,4.99
2016-12-29T02:01:41.613Z,4.99
2016-12-29T02:02:22.098Z,4.88
2016-12-29T02:03:02.597Z,4.78
2016-12-29T02:03:43.068Z,4.8
2016-12-29T02:04:23.544Z,4.92
2016-12-29T02:05:04.108Z,4.88
2016-12-29T02:05:44.548Z,4.82
2016-12-29T02:06:25.066Z,4.91
2016-12-29T02:07:05.600Z,4.91
2016-12-29T02:07:46.055Z,4.92
2016-12-29T02:08:26.559Z,4.89
2016-12-29T02:09:07.008Z,4.97
2016-12-29T02:09:47.498Z,4.97
2016-12-29T02:10:27.983Z,4.8
2016-12-29T02:11:08.551Z,4.85
2016-12-29T02:11:48.979Z,4.89
2016-12-29T02:12:29.494Z,4.88
2016-12-29T02:13:09.976Z,4.73
2016-12-29T02:13:50.439Z,4.72
2016-12-29T02:14:30.947Z,4.73
2016-12-29T02:15:11.413Z,4.67
2016-12-29T02:15:52.012Z,4.66
2016-12-29T02:16:32.503Z,4.7
2016-12-29T02:17:13.002Z,4.8
2016-12-29T02:17:53.455Z,4.82
2016-12-29T02:18:33.996Z,4.85
2016-12-29T02:19:14.481Z,4.75
2016-12-29T02:19:54.972Z,4.77
2016-12-29T02:20:35.525Z,4.96
2016-12-29T02:21:15.973Z,4.89
2016-12-29T02:21:56.522Z,4.86
2016-12-29T02:22:37.030Z,4.73
2016-12-29T02:23:17.509Z,4.75
2016-12-29T02:23:58.006Z,4.85
2016-12-29T02:24:38.508Z,4.72
2016-12-29T02:25:18.989Z,4.8
2016-12-29T02:25:59.434Z,4.91
2016-12-29T02:26:39.941Z,4.88
2016-12-29T02:27:20.447Z,4.8
2016-12-29T02:28:00.895Z,4.73
2016-12-29T02:28:41.376Z,4.89
2016-12-29T02:29:21.882Z,4.91
2016-12-29T02:30:02.343Z,4.89
2016-12-29T02:30:42.842Z,4.8
2016-12-29T02:31:23.293Z,4.85
2016-12-29T02:32:03.846Z,4.78
2016-12-29T02:32:44.268Z,4.77
2016-12-29T02:33:24.797Z,4.84
2016-12-29T02:34:05.306Z,4.8
2016-12-29T02:34:45.775Z,4.88
2016-12-29T02:35:26.212Z,4.78
2016-12-29T02:36:06.682Z,4.8
2016-12-29T02:36:47.180Z,4.78
2016-12-29T02:37:27.671Z,4.78
2016-12-29T02:38:08.185Z,4.77
2016-12-29T02:38:48.642Z,4.72
2016-12-29T02:39:29.082Z,4.7
2016-12-29T02:40:09.607Z,4.63
2016-12-29T02:40:50.104Z,4.7
2016-12-29T02:41:30.548Z,4.73
2016-12-29T02:42:11.062Z,4.72
2016-12-29T02:42:51.510Z,4.73
2016-12-29T02:43:31.994Z,4.75
2016-12-29T02:44:12.513Z,4.66
2016-12-29T02:44:53.049Z,4.66
2016-12-29T02:45:33.470Z,4.73
2016-12-29T02:46:13.962Z,4.66
2016-12-29T02:46:54.425Z,4.7
2016-12-29T02:47:34.935Z,4.73
2016-12-29T02:48:15.481Z,4.75
2016-12-29T02:48:55.991Z,4.72
2016-12-29T02:49:36.512Z,4.72
2016-12-29T02:50:16.938Z,4.82
2016-12-29T02:50:57.425Z,4.78
2016-12-29T02:51:37.871Z,4.8
2016-12-29T02:52:18.335Z,4.84
2016-12-29T02:52:58.809Z,4.84
2016-12-29T02:53:39.350Z,4.8
2016-12-29T02:54:19.801Z,4.77
2016-12-29T02:55:00.282Z,4.85
2016-12-29T02:55:40.731Z,4.7
2016-12-29T02:56:21.265Z,4.72
2016-12-29T02:57:01.727Z,4.77
2016-12-29T02:57:42.219Z,4.7
2016-12-29T02:58:22.692Z,4.63
2016-12-29T02:59:03.196Z,4.69
2016-12-29T02:59:43.644Z,4.69
2016-12-29T03:00:24.085Z,4.63
2016-12-29T03:01:04.577Z,4.65
2016-12-29T03:01:45.030Z,4.65
2016-12-29T03:02:25.515Z,4.65
2016-12-29T03:03:05.998Z,4.6
2016-12-29T03:03:46.468Z,4.62
2016-12-29T03:04:26.972Z,4.59
2016-12-29T03:05:07.444Z,4.6
2016-12-29T03:05:47.929Z,4.48
2016-12-29T03:06:28.427Z,4.58
2016-12-29T03:07:08.928Z,4.63
2016-12-29T03:07:49.398Z,4.67
2016-12-29T03:08:29.892Z,4.63
2016-12-29T03:09:10.403Z,4.65
2016-12-29T03:09:50.849Z,4.67
2016-12-29T03:10:31.388Z,4.77
2016-12-29T03:11:11.891Z,4.72
2016-12-29T03:11:52.391Z,4.65
2016-12-29T03:12:32.858Z,4.67
2016-12-29T03:13:13.325Z,4.72
2016-12-29T03:13:53.841Z,4.75
2016-12-29T03:14:34.308Z,4.75
2016-12-29T03:15:14.784Z,4.72
2016-12-29T03:15:55.240Z,4.7
2016-12-29T03:16:35.741Z,4.65
2016-12-29T03:17:16.246Z,4.72
2016-12-29T03:17:56.759Z,4.69
2016-12-29T03:18:37.233Z,4.75
2016-12-29T03:19:17.719Z,4.75
2016-12-29T03:19:58.203Z,4.8
2016-12-29T03:20:38.704Z,4.73
2016-12-29T03:21:19.248Z,4.89
2016-12-29T03:21:59.736Z,4.92
2016-12-29T03:22:40.177Z,4.8
2016-12-29T03:23:20.672Z,4.78
2016-12-29T03:24:01.214Z,4.7
2016-12-29T03:24:41.763Z,4.7
2016-12-29T03:25:22.251Z,4.73
2016-12-29T03:26:02.694Z,4.65
2016-12-29T03:26:43.184Z,4.69
2016-12-29T03:27:23.690Z,4.66
2016-12-29T03:28:04.187Z,4.67
2016-12-29T03:28:44.651Z,4.62
2016-12-29T03:29:25.178Z,4.67
2016-12-29T03:30:05.645Z,4.73
2016-12-29T03:30:46.143Z,4.66
2016-12-29T03:31:26.702Z,4.72
2016-12-29T03:32:07.213Z,4.66
2016-12-29T03:32:47.739Z,4.63
2016-12-29T03:33:28.192Z,4.7
2016-12-29T03:34:08.632Z,4.67
2016-12-29T03:34:49.134Z,4.69
2016-12-29T03:35:29.582Z,4.59
2016-12-29T03:36:10.062Z,4.67
2016-12-29T03:36:50.536Z,4.67
2016-12-29T03:37:31.041Z,4.66
2016-12-29T03:38:11.514Z,4.58
2016-12-29T03:38:52.003Z,4.5
2016-12-29T03:39:32.466Z,4.58
2016-12-29T03:40:12.981Z,4.59
2016-12-29T03:40:53.419Z,4.62
2016-12-29T03:41:33.898Z,4.55
2016-12-29T03:42:14.409Z,4.59
2016-12-29T03:42:54.858Z,4.62
2016-12-29T03:43:35.341Z,4.6
2016-12-29T03:44:15.819Z,4.59
2016-12-29T03:44:56.283Z,4.67
2016-12-29T03:45:36.781Z,4.65
2016-12-29T03:46:17.253Z,4.54
2016-12-29T03:46:57.775Z,4.54
2016-12-29T03:47:38.269Z,4.63
2016-12-29T03:48:18.702Z,4.67
2016-12-29T03:48:59.207Z,4.62
2016-12-29T03:49:39.701Z,4.66
2016-12-29T03:50:20.175Z,4.62
2016-12-29T03:51:00.687Z,4.62
2016-12-29T03:51:41.135Z,4.65
2016-12-29T03:52:21.650Z,4.59
2016-12-29T03:53:02.183Z,4.6
2016-12-29T03:53:42.669Z,4.66
2016-12-29T03:54:23.114Z,4.59
2016-12-29T03:55:03.644Z,4.72
2016-12-29T03:55:44.122Z,4.69
2016-12-29T03:56:24.592Z,4.67
2016-12-29T03:57:05.117Z,4.62
2016-12-29T03:57:45.591Z,4.54
2016-12-29T03:58:26.045Z,4.6
2016-12-29T03:59:06.564Z,4.51
2016-12-29T03:59:47.015Z,4.52
2016-12-29T04:00:27.503Z,4.59
2016-12-29T04:01:08.012Z,4.58
2016-12-29T04:01:48.533Z,4.67
2016-12-29T04:02:28.984Z,4.58
2016-12-29T04:03:09.540Z,4.65
2016-12-29T04:03:50.048Z,4.7
2016-12-29T04:04:30.488Z,4.52
2016-12-29T04:05:11.004Z,4.58
2016-12-29T04:05:51.472Z,4.55
2016-12-29T04:06:31.970Z,4.58
2016-12-29T04:07:12.468Z,4.62
2016-12-29T04:07:52.943Z,4.59
2016-12-29T04:08:33.380Z,4.59
2016-12-29T04:09:13.943Z,4.69
2016-12-29T04:09:54.413Z,4.66
2016-12-29T04:10:34.912Z,4.69
2016-12-29T04:11:15.392Z,4.63
2016-12-29T04:11:55.916Z,4.62
2016-12-29T04:12:36.372Z,4.59
2016-12-29T04:13:16.885Z,4.66
2016-12-29T04:13:57.357Z,4.66
2016-12-29T04:14:37.854Z,4.65
2016-12-29T04:15:18.338Z,4.59
2016-12-29T04:15:58.810Z,4.48
2016-12-29T04:16:39.306Z,4.48
2016-12-29T04:17:19.768Z,4.54
2016-12-29T04:18:00.279Z,4.48
2016-12-29T04:18:40.756Z,4.58
2016-12-29T04:19:21.248Z,4.58
2016-12-29T04:20:01.703Z,4.4
2016-12-29T04:20:42.263Z,4.48
2016-12-29T04:21:22.788Z,4.47
2016-12-29T04:22:03.253Z,4.47
2016-12-29T04:22:43.686Z,4.5
2016-12-29T04:23:24.207Z,4.58
2016-12-29T04:24:04.714Z,4.51
2016-12-29T04:24:45.227Z,4.48
2016-12-29T04:25:25.722Z,4.51
2016-12-29T04:26:06.209Z,4.52
2016-12-29T04:26:46.677Z,4.58
2016-12-29T04:27:27.194Z,4.55
2016-12-29T04:28:07.655Z,4.37
2016-12-29T04:28:48.135Z,4.48
2016-12-29T04:29:28.631Z,4.58
2016-12-29T04:30:09.100Z,4.54
2016-12-29T04:30:49.666Z,4.48
2016-12-29T04:31:30.122Z,4.59
2016-12-29T04:32:10.589Z,4.58
2016-12-29T04:32:51.107Z,4.66
2016-12-29T04:33:31.587Z,4.45
2016-12-29T04:34:12.128Z,4.55
2016-12-29T04:34:52.577Z,4.54
2016-12-29T04:35:33.107Z,4.58
2016-12-29T04:36:13.521Z,4.6
2016-12-29T04:36:54.076Z,4.52
2016-12-29T04:37:34.490Z,4.47
2016-12-29T04:38:15.013Z,4.58
2016-12-29T04:38:55.489Z,4.47
2016-12-29T04:39:35.964Z,4.51
2016-12-29T04:40:16.458Z,4.55
2016-12-29T04:40:56.956Z,4.52
2016-12-29T04:41:37.428Z,4.54
2016-12-29T04:42:17.929Z,4.54
2016-12-29T04:42:58.453Z,4.58
2016-12-29T04:43:38.922Z,4.55
2016-12-29T04:44:19.415Z,4.48
2016-12-29T04:44:59.893Z,4.65
2016-12-29T04:45:40.409Z,4.5
2016-12-29T04:46:20.917Z,4.55
2016-12-29T04:47:01.397Z,4.5
2016-12-29T04:47:41.904Z,4.54
2016-12-29T04:48:22.376Z,4.45
2016-12-29T04:49:02.833Z,4.58
2016-12-29T04:49:43.327Z,4.5
2016-12-29T04:50:23.846Z,4.5
2016-12-29T04:51:04.297Z,4.36
2016-12-29T04:51:44.794Z,4.44
2016-12-29T04:52:25.298Z,4.42
2016-12-29T04:53:05.796Z,4.4
2016-12-29T04:53:46.299Z,4.52
2016-12-29T04:54:26.786Z,4.37
2016-12-29T04:55:07.260Z,4.48
2016-12-29T04:55:47.738Z,4.41
2016-12-29T04:56:28.196Z,4.34
2016-12-29T04:57:08.682Z,4.47
2016-12-29T04:57:49.173Z,4.45
2016-12-29T04:58:29.675Z,4.4
2016-12-29T04:59:10.128Z,4.44
2016-12-29T04:59:50.685Z,4.52
2016-12-29T05:00:31.154Z,4.51
2016-12-29T05:01:11.607Z,4.45
2016-12-29T05:01:52.115Z,4.41
2016-12-29T05:02:32.649Z,4.41
2016-12-29T05:03:13.066Z,4.45
2016-12-29T05:03:53.541Z,4.42
2016-12-29T05:04:34.046Z,4.36
2016-12-29T05:05:14.542Z,4.29
2016-12-29T05:05:55.017Z,4.36
2016-12-29T05:06:35.495Z,4.37
2016-12-29T05:07:15.970Z,4.37
2016-12-29T05:07:56.464Z,4.44
2016-12-29T05:08:36.930Z,4.33
2016-12-29T05:09:17.387Z,4.29
2016-12-29T05:09:57.890Z,4.36
2016-12-29T05:10:38.391Z,4.33
2016-12-29T05:11:18.849Z,4.42
2016-12-29T05:11:59.313Z,4.4
2016-12-29T05:12:39.870Z,4.36
2016-12-29T05:13:20.342Z,4.37
2016-12-29T05:14:00.839Z,4.42
2016-12-29T05:14:41.318Z,4.42
2016-12-29T05:15:21.805Z,4.27
2016-12-29T05:16:02.329Z,4.36
2016-12-29T05:16:42.777Z,4.32
2016-12-29T05:17:23.282Z,4.34
2016-12-29T05:18:03.825Z,4.3
2016-12-29T05:18:44.279Z,4.27
2016-12-29T05:19:24.783Z,4.34
2016-12-29T05:20:05.439Z,4.26
2016-12-29T05:20:45.836Z,4.34
2016-12-29T05:21:26.324Z,4.36
2016-12-29T05:22:06.841Z,4.34
2016-12-29T05:22:47.342Z,4.4
2016-12-29T05:23:27.826Z,4.33
2016-12-29T05:24:08.312Z,4.41
2016-12-29T05:24:48.788Z,4.34
2016-12-29T05:25:29.318Z,4.3
2016-12-29T05:26:09.818Z,4.37
2016-12-29T05:26:50.330Z,4.41
2016-12-29T05:27:30.809Z,4.29
2016-12-29T05:28:11.313Z,4.34
2016-12-29T05:28:51.841Z,4.33
2016-12-29T05:29:32.299Z,4.34
2016-12-29T05:30:12.754Z,4.37
2016-12-29T05:30:53.227Z,4.42
2016-12-29T05:31:33.750Z,4.45
2016-12-29T05:32:14.223Z,4.33
2016-12-29T05:32:54.707Z,4.42
2016-12-29T05:33:35.203Z,4.45
2016-12-29T05:34:15.659Z,4.37
2016-12-29T05:34:56.168Z,4.37
2016-12-29T05:35:36.697Z,4.51
2016-12-29T05:36:17.119Z,4.44
2016-12-29T05:36:57.655Z,4.36
2016-12-29T05:37:38.063Z,4.41
2016-12-29T05:38:18.571Z,4.51
2016-12-29T05:38:59.058Z,4.54
2016-12-29T05:39:39.553Z,4.5
2016-12-29T05:40:20.052Z,4.51
2016-12-29T05:41:00.485Z,4.47
2016-12-29T05:41:40.942Z,4.42
2016-12-29T05:42:21.492Z,4.45
2016-12-29T05:43:02.014Z,4.45
2016-12-29T05:43:42.431Z,4.41
2016-12-29T05:44:22.937Z,4.22
2016-12-29T05:45:03.448Z,4.05
2016-12-29T05:45:43.937Z,4.22
2016-12-29T05:46:24.421Z,4.23
2016-12-29T05:47:04.900Z,4.27
2016-12-29T05:47:45.356Z,4.34
2016-12-29T05:48:25.928Z,4.36
2016-12-29T05:49:06.445Z,4.37
2016-12-29T05:49:46.932Z,4.44
2016-12-29T05:50:27.431Z,4.41
2016-12-29T05:51:07.934Z,4.42
2016-12-29T05:51:48.393Z,4.48
2016-12-29T05:52:28.902Z,4.44
2016-12-29T05:53:09.330Z,4.37
2016-12-29T05:53:49.809Z,4.34
2016-12-29T05:54:30.334Z,4.47
2016-12-29T05:55:10.824Z,4.4
2016-12-29T05:55:51.275Z,4.48
2016-12-29T05:56:31.739Z,4.48
2016-12-29T05:57:12.220Z,4.33
2016-12-29T05:57:52.732Z,4.26
2016-12-29T05:58:33.187Z,4.32
2016-12-29T05:59:13.687Z,4.42
2016-12-29T05:59:54.203Z,4.34
2016-12-29T06:00:34.670Z,4.41
2016-12-29T06:01:15.137Z,4.33
2016-12-29T06:01:55.656Z,4.23
2016-12-29T06:02:36.153Z,4.29
2016-12-29T06:03:16.620Z,4.37
2016-12-29T06:03:57.107Z,4.29
2016-12-29T06:04:37.563Z,4.27
2016-12-29T06:05:18.084Z,4.41
2016-12-29T06:05:58.562Z,4.45
2016-12-29T06:06:39.030Z,4.42
2016-12-29T06:07:19.491Z,4.36
2016-12-29T06:07:59.993Z,4.44
2016-12-29T06:08:40.498Z,4.4
2016-12-29T06:09:20.967Z,4.37
2016-12-29T06:10:01.458Z,4.36
2016-12-29T06:10:41.944Z,4.37
2016-12-29T06:11:22.447Z,4.37
2016-12-29T06:12:02.983Z,4.37
2016-12-29T06:12:43.463Z,4.4
2016-12-29T06:13:23.991Z,4.41
2016-12-29T06:14:04.503Z,4.45
2016-12-29T06:14:44.956Z,4.33
2016-12-29T06:15:25.458Z,4.41
2016-12-29T06:16:05.927Z,4.44
2016-12-29T06:16:46.442Z,4.41
2016-12-29T06:17:26.966Z,4.37
2016-12-29T06:18:07.433Z,4.33
2016-12-29T06:18:47.923Z,4.42
2016-12-29T06:19:28.443Z,4.47
2016-12-29T06:20:08.929Z,4.37
2016-12-29T06:20:49.428Z,4.51
2016-12-29T06:21:29.910Z,4.45
2016-12-29T06:22:10.386Z,4.44
2016-12-29T06:22:50.871Z,4.41
2016-12-29T06:23:31.358Z,4.32
2016-12-29T06:24:11.845Z,4.45
2016-12-29T06:24:52.315Z,4.45
2016-12-29T06:25:32.815Z,4.37
2016-12-29T06:26:13.318Z,4.41
2016-12-29T06:26:53.873Z,4.42
2016-12-29T06:27:34.405Z,4.3
2016-12-29T06:28:14.917Z,4.37
2016-12-29T06:28:55.390Z,4.27
2016-12-29T06:29:35.900Z,4.27
2016-12-29T06:30:16.415Z,4.36
2016-12-29T06:30:56.942Z,4.32
2016-12-29T06:31:37.420Z,4.41
2016-12-29T06:32:17.901Z,4.47
2016-12-29T06:32:58.406Z,4.34
2016-12-29T06:33:38.902Z,4.42
2016-12-29T06:34:19.409Z,4.36
2016-12-29T06:34:59.876Z,4.37
2016-12-29T06:35:40.368Z,4.3
2016-12-29T06:36:20.867Z,4.29
2016-12-29T06:37:01.319Z,4.3
2016-12-29T06:37:41.817Z,4.4
2016-12-29T06:38:22.270Z,4.42
2016-12-29T06:39:02.757Z,4.47
2016-12-29T06:39:43.224Z,4.36
2016-12-29T06:40:23.720Z,4.4
2016-12-29T06:41:04.262Z,4.47
2016-12-29T06:41:44.755Z,4.47
2016-12-29T06:42:26.152Z,4.4
2016-12-29T06:43:05.759Z,4.51
2016-12-29T06:43:46.275Z,4.4
2016-12-29T06:44:26.791Z,4.44
2016-12-29T06:45:07.304Z,4.37
2016-12-29T06:45:47.821Z,4.2
2016-12-29T06:46:28.327Z,4.11
2016-12-29T06:47:08.836Z,4.09
2016-12-29T06:47:49.360Z,4.12
2016-12-29T06:48:29.852Z,4.14
2016-12-29T06:49:10.313Z,4.05
2016-12-29T06:49:50.815Z,4.04
2016-12-29T06:50:31.270Z,4.24
2016-12-29T06:51:11.794Z,4.37
2016-12-29T06:51:52.284Z,4.44
2016-12-29T06:52:32.769Z,4.29
2016-12-29T06:53:13.233Z,4.29
2016-12-29T06:53:53.753Z,4.32
2016-12-29T06:54:34.250Z,4.3
2016-12-29T06:55:14.723Z,4.36
2016-12-29T06:55:55.210Z,4.4
2016-12-29T06:56:35.711Z,4.29
2016-12-29T06:57:16.197Z,4.26
2016-12-29T06:57:56.750Z,4.15
2016-12-29T06:58:37.242Z,4.14
2016-12-29T06:59:17.772Z,4.16
2016-12-29T06:59:58.221Z,4.24
2016-12-29T07:00:38.732Z,4.16
2016-12-29T07:01:19.222Z,4.36
2016-12-29T07:01:59.743Z,4.32
2016-12-29T07:02:40.204Z,4.11
2016-12-29T07:03:20.692Z,4.26
2016-12-29T07:04:01.244Z,4.26
2016-12-29T07:04:41.666Z,4.29
2016-12-29T07:05:22.148Z,4.24
2016-12-29T07:06:02.662Z,4.26
2016-12-29T07:06:43.185Z,4.41
2016-12-29T07:07:23.625Z,4.3
2016-12-29T07:08:04.152Z,4.32
2016-12-29T07:08:44.747Z,4.33
2016-12-29T07:09:25.278Z,4.32
2016-12-29T07:10:05.765Z,4.23
2016-12-29T07:10:46.272Z,4.27
2016-12-29T07:11:26.751Z,4.3
2016-12-29T07:12:07.220Z,4.23
2016-12-29T07:12:47.747Z,4.24
2016-12-29T07:13:28.284Z,4.29
2016-12-29T07:14:08.852Z,4.33
2016-12-29T07:14:49.276Z,4.29
2016-12-29T07:15:29.879Z,4.37
2016-12-29T07:16:10.255Z,4.41
2016-12-29T07:16:50.720Z,4.44
2016-12-29T07:17:31.310Z,4.36
2016-12-29T07:18:11.828Z,4.29
2016-12-29T07:18:52.273Z,4.45
2016-12-29T07:19:32.839Z,4.4
2016-12-29T07:20:13.302Z,4.37
2016-12-29T07:20:53.821Z,4.42
2016-12-29T07:21:34.365Z,4.45
2016-12-29T07:22:14.936Z,4.26
2016-12-29T07:22:55.502Z,4.36
2016-12-29T07:23:36.053Z,4.41
2016-12-29T07:24:16.550Z,4.42
2016-12-29T07:24:57.029Z,4.51
2016-12-29T07:25:37.502Z,4.48
2016-12-29T07:26:17.984Z,4.45
2016-12-29T07:26:58.507Z,4.52
2016-12-29T07:27:39.006Z,4.48
2016-12-29T07:28:20.062Z,4.48
2016-12-29T07:29:00.568Z,4.51
2016-12-29T07:29:41.903Z,4.58
2016-12-29T07:30:22.347Z,4.52
2016-12-29T07:31:02.822Z,4.54
2016-12-29T07:31:43.321Z,4.45
2016-12-29T07:32:23.808Z,4.48
2016-12-29T07:33:04.301Z,4.51
2016-12-29T07:33:44.817Z,4.5
2016-12-29T07:34:25.362Z,4.51
2016-12-29T07:35:05.994Z,4.45
2016-12-29T07:35:46.443Z,4.48
2016-12-29T07:36:27.019Z,4.52
2016-12-29T07:37:07.528Z,4.36
2016-12-29T07:37:48.000Z,4.37
2016-12-29T07:38:28.550Z,4.5
2016-12-29T07:39:09.247Z,4.4
2016-12-29T07:39:50.518Z,4.41
2016-12-29T07:40:30.952Z,4.52
2016-12-29T07:41:11.440Z,4.5
2016-12-29T07:41:52.055Z,4.37
2016-12-29T07:42:32.649Z,4.34
2016-12-29T07:43:13.147Z,4.36
2016-12-29T07:43:53.590Z,4.15
2016-12-29T07:44:34.343Z,4.15
2016-12-29T07:45:14.929Z,4.22
2016-12-29T07:45:55.338Z,4.24
2016-12-29T07:46:35.875Z,4.06
2016-12-29T07:47:16.312Z,4.14
2016-12-29T07:47:56.856Z,4.26
2016-12-29T07:48:37.339Z,4.2
2016-12-29T07:49:17.813Z,4.14
2016-12-29T07:49:58.264Z,4.24
2016-12-29T07:50:38.875Z,4.11
2016-12-29T07:51:19.257Z,4.04
2016-12-29T07:51:59.752Z,3.9
2016-12-29T07:52:40.244Z,3.83
2016-12-29T07:53:20.710Z,3.96
2016-12-29T07:54:01.185Z,4.06
2016-12-29T07:54:41.667Z,4.11
2016-12-29T07:55:22.187Z,4.08
2016-12-29T07:56:02.670Z,3.98
2016-12-29T07:56:43.189Z,4.06
2016-12-29T07:57:23.694Z,3.98
2016-12-29T07:58:04.157Z,4.05
2016-12-29T07:58:44.649Z,4.06
2016-12-29T07:59:25.120Z,4.2
2016-12-29T08:00:05.619Z,4.23
2016-12-29T08:00:46.139Z,4.26
2016-12-29T08:01:27.579Z,4.33
2016-12-29T08:02:08.173Z,4.29
2016-12-29T08:02:48.712Z,4.29
2016-12-29T08:03:30.226Z,4.32
2016-12-29T08:04:10.712Z,4.32
2016-12-29T08:04:51.195Z,4.33
2016-12-29T08:05:31.690Z,4.29
2016-12-29T08:06:12.175Z,4.27
2016-12-29T08:06:53.026Z,4.36
2016-12-29T08:07:33.579Z,4.24
2016-12-29T08:08:14.732Z,4.27
2016-12-29T08:08:55.270Z,4.3
2016-12-29T08:11:31.572Z,4.02
2016-12-29T08:12:12.120Z,4.23
2016-12-29T08:14:05.173Z,4.2
2016-12-29T08:14:45.666Z,4.15
2016-12-29T08:15:26.323Z,4.23
2016-12-29T08:16:06.814Z,4.24
2016-12-29T08:16:47.364Z,4.3
2016-12-29T08:24:59.994Z,4.26
2016-12-29T08:54:11.077Z,4.29
2016-12-29T08:57:39.542Z,4.33
2016-12-29T08:58:39.138Z,4.32
2016-12-29T09:01:56.135Z,4.54
2016-12-29T09:04:38.580Z,4.51
2016-12-29T09:07:29.484Z,4.94
2016-12-29T09:10:17.652Z,4.91
2016-12-29T09:11:01.019Z,4.92
2016-12-29T09:12:59.401Z,4.96
2016-12-29T09:17:21.789Z,4.97
2016-12-29T09:18:56.284Z,5.09
2016-12-29T09:19:44.611Z,5.03
2016-12-29T09:25:24.073Z,5.15
2016-12-29T09:29:00.520Z,5.28
2016-12-29T09:31:19.726Z,5.28
2016-12-29T09:32:13.043Z,5.39
2016-12-29T09:33:50.639Z,5.33
2016-12-29T09:34:42.432Z,5.42
2016-12-29T09:41:12.360Z,5.65
2016-12-29T09:43:21.948Z,5.61
2016-12-29T09:45:39.118Z,5.63
2016-12-29T09:46:26.888Z,5.57
2016-12-29T09:51:42.762Z,5.89
2016-12-29T09:53:30.648Z,5.72
2016-12-29T09:57:05.510Z,5.53
2016-12-29T09:58:26.028Z,5.57
2016-12-29T10:00:55.134Z,5.81
2016-12-29T10:25:50.613Z,6.03
2016-12-29T10:26:31.318Z,6.04
2016-12-29T10:27:12.683Z,6.12
2016-12-29T10:27:53.138Z,6.04
2016-12-29T10:28:33.630Z,6.14
2016-12-29T10:29:14.074Z,6.15
2016-12-29T10:29:54.615Z,6.08
2016-12-29T10:30:35.112Z,6.11
2016-12-29T10:31:15.635Z,5.99
2016-12-29T10:31:56.155Z,6.21
2016-12-29T10:32:36.588Z,6.14
2016-12-29T10:33:17.099Z,6.17
2016-12-29T10:33:57.568Z,6.19
2016-12-29T10:34:38.073Z,6.15
2016-12-29T10:35:18.629Z,6.17
2016-12-29T10:35:59.123Z,6.18
2016-12-29T10:36:39.652Z,6.38
2016-12-29T10:37:20.994Z,6.36
2016-12-29T10:38:01.446Z,6.36
2016-12-29T10:38:41.952Z,6.4
2016-12-29T10:39:22.427Z,6.49
2016-12-29T10:40:02.931Z,6.4
2016-12-29T10:40:43.446Z,6.49
2016-12-29T10:41:27.533Z,6.59
2016-12-29T10:42:07.315Z,6.59
2016-12-29T10:42:47.881Z,6.33
2016-12-29T10:43:28.324Z,6.43
2016-12-29T10:44:08.834Z,6.44
2016-12-29T11:35:27.224Z,7.21
2016-12-29T11:40:24.657Z,7.13
2016-12-29T11:42:37.625Z,7.23
2016-12-29T12:25:39.636Z,7.92
2016-12-29T12:28:40.085Z,7.6
2016-12-29T12:29:20.593Z,7.75
2016-12-29T12:30:01.247Z,7.67
2016-12-29T12:30:42.665Z,7.68
2016-12-29T12:32:30.637Z,7.89
2016-12-29T12:33:11.130Z,7.92
2016-12-29T12:33:51.637Z,7.95
2016-12-29T12:34:32.125Z,8.07
2016-12-29T12:35:12.611Z,7.85
2016-12-29T12:35:53.106Z,7.9